首页
METAR-TAF:

METAR-TAF

机场 :

真纳国际机场

卡拉奇, 巴基斯坦

纬度: 24-54N, 经度: 067-08E, 海拔: 21米

当前天气观测

该预报发布于35分钟前的23:00 UTC
风速9节,风向西
温度 29°C
湿度 74%
气压 1006 hPa
能見度: 6000
散云层高于2000英尺

METAR: OPKC 242300Z 28009KT 6000 SCT020 29/24 Q1006 NOSIG

时间: 04:35 (23:35 UTC)

预报

该预报发布于5小时和5分钟前的18:30 UTC
预报有效从24日的 21点(UTC)到 25日的 06点(UTC)
风速10节,风向西
能見度: 5000
散云层高于2000英尺
短暂存在
从 25日的 00点(UTC)到 25日的 04点(UTC)
风速8节,风向西北
能見度: 4000
散云层高于10000英尺

TAF: OPKC 241830Z 2421/2506 27010KT 5000 HZ SCT020 TEMPO 2500/2504 31008KT 4000 FU SCT100

超过4000个机场的气象观测和天气预报(METAR&TAF报告)。

可查询的气象台以黄色和红色小点在地图上表示。

将鼠标移到小点上方,可查看气象台名称。

然后点击查看天气观测和预报。

如需切换地图:点击带黑十字的绿色按钮放大地图;点击带横线的绿色按钮缩小地图;或者点击绿色箭头查看邻近地区的地图。


METAR-TAF: